createdAt,value
2023-02-24T00:02:15.521Z,8.20
2023-02-24T00:04:45.674Z,8.00
2023-02-24T00:07:14.148Z,9.90
2023-02-24T00:09:44.888Z,9.20
2023-02-24T00:12:15.091Z,8.50
2023-02-24T00:14:48.686Z,10.30
2023-02-24T00:17:17.264Z,9.70
2023-02-24T00:19:46.819Z,8.20
2023-02-24T00:22:15.175Z,9.50
2023-02-24T00:24:44.456Z,7.90
2023-02-24T00:27:12.854Z,9.00
2023-02-24T00:29:45.617Z,7.80
2023-02-24T00:32:15.202Z,8.80
2023-02-24T00:34:44.832Z,11.30
2023-02-24T00:37:15.600Z,8.40
2023-02-24T00:39:48.131Z,11.50
2023-02-24T00:42:17.480Z,7.10
2023-02-24T00:44:46.984Z,8.80
2023-02-24T00:47:17.379Z,12.80
2023-02-24T00:49:46.156Z,8.60
2023-02-24T00:52:19.452Z,7.60
2023-02-24T00:54:49.187Z,8.60
2023-02-24T00:57:21.696Z,10.90
2023-02-24T00:59:54.828Z,9.20
2023-02-24T01:02:24.232Z,8.80
2023-02-24T01:04:53.231Z,9.80
2023-02-24T01:07:21.934Z,8.20
2023-02-24T01:09:50.608Z,7.80
2023-02-24T01:12:23.886Z,8.10
2023-02-24T01:14:53.115Z,9.10
2023-02-24T01:17:22.096Z,9.10
2023-02-24T01:19:51.170Z,7.30
2023-02-24T01:22:20.377Z,9.60
2023-02-24T01:24:49.258Z,6.10
2023-02-24T01:27:19.607Z,10.40
2023-02-24T01:32:20.400Z,8.00
2023-02-24T01:34:54.018Z,6.70
2023-02-24T01:37:22.616Z,6.50
2023-02-24T01:39:50.891Z,7.60
2023-02-24T01:42:20.860Z,8.10
2023-02-24T01:44:52.263Z,9.40
2023-02-24T01:47:23.717Z,8.80
2023-02-24T01:49:53.212Z,12.40
2023-02-24T01:52:30.753Z,8.70
2023-02-24T01:55:20.313Z,8.30
2023-02-24T01:57:50.742Z,8.50
2023-02-24T02:00:32.820Z,8.10
2023-02-24T02:03:04.232Z,8.50
2023-02-24T02:05:32.531Z,8.80
2023-02-24T02:08:03.779Z,9.20
2023-02-24T02:10:34.204Z,11.20
2023-02-24T02:15:37.924Z,9.90
2023-02-24T02:18:28.655Z,8.80
2023-02-24T02:21:04.887Z,8.70
2023-02-24T02:23:50.926Z,8.50
2023-02-24T02:26:40.772Z,9.90
2023-02-24T02:29:22.564Z,7.30
2023-02-24T02:34:50.642Z,7.00
2023-02-24T02:37:21.391Z,7.30
2023-02-24T02:40:22.011Z,7.00
2023-02-24T02:43:08.545Z,9.80
2023-02-24T02:46:35.064Z,11.90
2023-02-24T02:49:17.149Z,9.40
2023-02-24T02:52:05.915Z,8.50
2023-02-24T02:54:54.561Z,6.80
2023-02-24T02:57:28.050Z,5.90
2023-02-24T03:00:02.196Z,11.30
2023-02-24T03:02:31.465Z,7.80
2023-02-24T03:05:02.164Z,8.00
2023-02-24T03:07:35.153Z,10.10
2023-02-24T03:10:11.051Z,12.90
2023-02-24T03:12:39.619Z,11.20
2023-02-24T03:15:10.862Z,9.10
2023-02-24T03:17:41.175Z,5.90
2023-02-24T03:20:36.404Z,7.30
2023-02-24T03:23:12.046Z,9.30
2023-02-24T03:26:17.369Z,8.50
2023-02-24T03:29:13.416Z,7.50
2023-02-24T03:31:54.455Z,7.00
2023-02-24T03:34:57.276Z,10.30
2023-02-24T03:37:28.090Z,7.30
2023-02-24T03:39:58.436Z,5.90
2023-02-24T03:42:30.379Z,7.20
2023-02-24T03:44:58.679Z,10.10
2023-02-24T03:47:27.462Z,8.50
2023-02-24T03:49:56.146Z,9.70
2023-02-24T03:52:32.819Z,7.80
2023-02-24T03:55:07.445Z,10.90
2023-02-24T03:58:04.493Z,8.40
2023-02-24T04:00:38.708Z,7.20
2023-02-24T04:03:25.942Z,9.80
2023-02-24T04:06:21.047Z,6.80
2023-02-24T04:09:16.750Z,5.80
2023-02-24T04:11:59.306Z,5.90
2023-02-24T04:14:38.593Z,6.60
2023-02-24T04:17:27.148Z,9.00
2023-02-24T04:19:59.123Z,8.10
2023-02-24T04:22:27.894Z,7.10
2023-02-24T04:24:59.940Z,6.10
2023-02-24T04:27:28.662Z,8.00
2023-02-24T04:30:05.211Z,10.20
2023-02-24T04:32:34.649Z,11.10
2023-02-24T04:35:09.752Z,8.80
2023-02-24T04:37:45.030Z,9.60
2023-02-24T04:40:17.771Z,9.10
2023-02-24T04:42:49.322Z,8.10
2023-02-24T04:47:49.641Z,11.00
2023-02-24T04:50:25.438Z,10.60
2023-02-24T04:53:01.159Z,10.80
2023-02-24T04:55:33.317Z,10.20
2023-02-24T04:58:02.454Z,8.90
2023-02-24T05:00:35.952Z,6.20
2023-02-24T05:03:05.229Z,10.40
2023-02-24T05:05:33.858Z,16.40
2023-02-24T05:08:04.957Z,8.60
2023-02-24T05:10:40.713Z,6.60
2023-02-24T05:13:09.604Z,11.40
2023-02-24T05:15:40.651Z,8.70
2023-02-24T05:18:10.141Z,9.10
2023-02-24T05:21:00.812Z,7.70
2023-02-24T05:23:39.454Z,7.30
2023-02-24T05:26:27.834Z,9.00
2023-02-24T05:28:56.755Z,10.60
2023-02-24T05:31:29.720Z,7.40
2023-02-24T05:34:06.828Z,8.80
2023-02-24T05:36:40.720Z,8.50
2023-02-24T05:39:12.905Z,11.40
2023-02-24T05:41:42.570Z,9.20
2023-02-24T05:44:23.812Z,5.70
2023-02-24T05:46:59.359Z,9.10
2023-02-24T05:49:33.218Z,9.70
2023-02-24T05:52:08.034Z,9.10
2023-02-24T05:54:42.938Z,8.90
2023-02-24T05:57:13.248Z,15.10
2023-02-24T05:59:43.215Z,8.30
2023-02-24T06:02:15.418Z,9.50
2023-02-24T06:04:54.141Z,13.50
2023-02-24T06:07:25.217Z,6.10
2023-02-24T06:09:58.798Z,9.70
2023-02-24T06:12:29.932Z,6.90
2023-02-24T06:15:08.056Z,8.20
2023-02-24T06:17:36.858Z,10.70
2023-02-24T06:20:15.049Z,5.60
2023-02-24T06:22:43.637Z,5.40
2023-02-24T06:25:16.003Z,9.80
2023-02-24T06:27:45.592Z,11.50
2023-02-24T06:30:15.408Z,7.30
2023-02-24T06:32:45.184Z,6.90
2023-02-24T06:35:15.663Z,5.10
2023-02-24T06:37:51.010Z,10.10
2023-02-24T06:40:20.206Z,8.20
2023-02-24T06:42:49.619Z,6.80
2023-02-24T06:45:19.017Z,12.00
2023-02-24T06:47:49.124Z,10.50
2023-02-24T06:50:20.389Z,11.20
2023-02-24T06:55:28.210Z,7.70
2023-02-24T06:57:58.966Z,6.70
2023-02-24T07:00:37.427Z,6.50
2023-02-24T07:03:15.386Z,6.90
2023-02-24T07:05:54.637Z,10.50
2023-02-24T07:08:24.894Z,10.40
2023-02-24T07:10:57.018Z,8.60
2023-02-24T07:13:26.365Z,8.00
2023-02-24T07:16:07.449Z,6.50
2023-02-24T07:18:37.256Z,10.00
2023-02-24T07:21:11.623Z,11.90
2023-02-24T07:23:40.864Z,7.40
2023-02-24T07:26:14.061Z,8.20
2023-02-24T07:28:43.671Z,13.90
2023-02-24T07:31:13.557Z,7.70
2023-02-24T07:33:45.263Z,8.20
2023-02-24T07:36:15.213Z,8.30
2023-02-24T07:38:44.532Z,6.60
2023-02-24T07:41:15.460Z,9.70
2023-02-24T07:43:44.475Z,10.70
2023-02-24T07:46:14.509Z,10.30
2023-02-24T07:48:42.789Z,8.00
2023-02-24T07:51:15.647Z,9.00
2023-02-24T07:53:53.131Z,10.00
2023-02-24T07:56:27.239Z,7.10
2023-02-24T07:59:02.265Z,9.10
2023-02-24T08:01:39.199Z,7.70
2023-02-24T08:04:08.663Z,8.20
2023-02-24T08:06:39.248Z,10.70
2023-02-24T08:09:19.448Z,13.60
2023-02-24T08:11:55.102Z,9.40
2023-02-24T08:14:25.944Z,11.20
2023-02-24T08:17:01.482Z,8.10
2023-02-24T08:19:33.648Z,9.60
2023-02-24T08:22:19.743Z,14.60
2023-02-24T08:24:55.615Z,8.50
2023-02-24T08:27:25.041Z,11.70
2023-02-24T08:30:01.691Z,11.30
2023-02-24T08:32:38.306Z,11.80
2023-02-24T08:35:17.780Z,7.50
2023-02-24T08:37:48.771Z,11.60
2023-02-24T08:40:34.034Z,9.60
2023-02-24T08:43:31.384Z,11.20
2023-02-24T08:46:12.720Z,7.80
2023-02-24T08:48:47.925Z,10.80
2023-02-24T08:51:22.762Z,11.70
2023-02-24T08:53:55.591Z,7.90
2023-02-24T08:56:34.923Z,16.30
2023-02-24T08:59:08.018Z,13.00
2023-02-24T09:01:40.316Z,10.60
2023-02-24T09:04:10.933Z,11.40
2023-02-24T09:06:40.557Z,12.10
2023-02-24T09:09:18.145Z,11.40
2023-02-24T09:11:56.736Z,11.10
2023-02-24T09:14:29.446Z,8.60
2023-02-24T09:17:11.667Z,10.30
2023-02-24T09:19:47.043Z,10.70
2023-02-24T09:22:31.703Z,7.60
2023-02-24T09:25:18.082Z,8.90
2023-02-24T09:28:08.338Z,10.30
2023-02-24T09:31:02.070Z,8.50
2023-02-24T09:33:39.439Z,10.60
2023-02-24T09:36:20.618Z,15.40
2023-02-24T09:39:00.843Z,12.40
2023-02-24T09:41:57.120Z,9.70
2023-02-24T09:44:27.454Z,15.90
2023-02-24T09:47:09.322Z,12.90
2023-02-24T09:52:18.551Z,12.50
2023-02-24T09:55:14.836Z,17.00
2023-02-24T09:58:18.551Z,18.20
2023-02-24T10:01:21.242Z,14.20
2023-02-24T10:04:21.200Z,8.00
2023-02-24T10:06:52.030Z,9.90
2023-02-24T10:09:38.993Z,10.90
2023-02-24T10:12:17.488Z,17.00
2023-02-24T10:14:53.246Z,12.80
2023-02-24T10:17:23.889Z,8.70
2023-02-24T10:20:39.602Z,8.80
2023-02-24T10:23:33.024Z,10.60
2023-02-24T10:26:32.243Z,8.40
2023-02-24T10:29:18.973Z,13.00
2023-02-24T10:31:57.889Z,11.50
2023-02-24T10:34:32.028Z,12.90
2023-02-24T10:37:26.143Z,11.60
2023-02-24T10:40:00.584Z,16.90
2023-02-24T10:42:32.854Z,10.90
2023-02-24T10:45:17.235Z,15.40
2023-02-24T10:47:59.102Z,8.70
2023-02-24T10:50:55.092Z,10.40
2023-02-24T10:53:30.095Z,9.60
2023-02-24T10:56:26.850Z,8.10
2023-02-24T10:59:23.213Z,15.80
2023-02-24T11:02:23.948Z,13.40
2023-02-24T11:05:02.895Z,11.00
2023-02-24T11:07:46.738Z,11.70
2023-02-24T11:10:45.733Z,15.60
2023-02-24T11:13:34.851Z,11.60
2023-02-24T11:16:22.282Z,14.70
2023-02-24T11:18:52.849Z,15.40
2023-02-24T11:21:24.001Z,14.20
2023-02-24T11:23:59.959Z,14.50
2023-02-24T11:26:46.552Z,15.50
2023-02-24T11:30:01.956Z,10.10
2023-02-24T11:32:33.543Z,9.80
2023-02-24T11:35:22.765Z,7.80
2023-02-24T11:38:17.861Z,9.90
2023-02-24T11:40:48.550Z,19.00
2023-02-24T11:43:21.561Z,15.40
2023-02-24T11:45:58.581Z,14.40
2023-02-24T11:48:36.871Z,15.50
2023-02-24T11:51:07.806Z,9.30
2023-02-24T11:53:54.229Z,15.40
2023-02-24T11:56:29.652Z,15.10
2023-02-24T11:59:13.086Z,14.80
2023-02-24T12:02:11.977Z,14.60
2023-02-24T12:05:15.279Z,12.20
2023-02-24T12:07:48.762Z,14.40
2023-02-24T12:10:28.925Z,10.70
2023-02-24T12:13:11.885Z,16.70
2023-02-24T12:16:03.395Z,13.90
2023-02-24T12:18:39.612Z,17.40
2023-02-24T12:21:10.361Z,12.20
2023-02-24T12:23:41.481Z,20.00
2023-02-24T12:26:16.033Z,21.10
2023-02-24T12:29:16.442Z,11.20
2023-02-24T12:32:16.125Z,13.00
2023-02-24T12:35:07.575Z,14.40
2023-02-24T12:37:57.465Z,19.40
2023-02-24T12:40:40.733Z,12.90
2023-02-24T12:43:47.057Z,17.60
2023-02-24T12:46:27.005Z,11.50
2023-02-24T12:49:05.569Z,13.20
2023-02-24T12:51:39.736Z,11.70
2023-02-24T12:54:30.408Z,15.40
2023-02-24T12:57:03.574Z,11.40
2023-02-24T12:59:34.022Z,12.30
2023-02-24T13:02:39.651Z,20.70
2023-02-24T13:05:19.883Z,13.10
2023-02-24T13:08:35.139Z,11.90
2023-02-24T13:11:39.572Z,16.90
2023-02-24T13:14:20.638Z,13.60
2023-02-24T13:16:49.202Z,12.80
2023-02-24T13:19:19.198Z,18.50
2023-02-24T13:22:12.188Z,16.10
2023-02-24T13:25:07.189Z,9.60
2023-02-24T13:27:37.205Z,15.80
2023-02-24T13:30:11.834Z,11.80
2023-02-24T13:32:46.185Z,16.80
2023-02-24T13:35:18.210Z,18.90
2023-02-24T13:37:48.018Z,15.20
2023-02-24T13:40:16.720Z,13.20
2023-02-24T13:42:56.768Z,13.40
2023-02-24T13:45:30.593Z,17.30
2023-02-24T13:48:36.638Z,14.00
2023-02-24T13:51:08.799Z,13.10
2023-02-24T13:53:37.385Z,14.80
2023-02-24T13:56:26.552Z,14.00
2023-02-24T13:59:19.407Z,15.00
2023-02-24T14:01:52.137Z,8.80
2023-02-24T14:04:27.225Z,18.40
2023-02-24T14:07:00.645Z,13.90
2023-02-24T14:09:40.247Z,12.50
2023-02-24T14:12:16.427Z,16.20
2023-02-24T14:14:44.798Z,14.70
2023-02-24T14:17:28.914Z,10.80
2023-02-24T14:20:20.458Z,14.70
2023-02-24T14:22:53.651Z,15.80
2023-02-24T14:25:23.568Z,11.50
2023-02-24T14:27:52.970Z,14.00
2023-02-24T14:30:23.041Z,11.70
2023-02-24T14:32:51.677Z,13.40
2023-02-24T14:35:42.296Z,15.30
2023-02-24T14:38:38.088Z,15.90
2023-02-24T14:41:30.332Z,16.40
2023-02-24T14:43:59.012Z,13.30
2023-02-24T14:46:27.950Z,14.20
2023-02-24T14:49:00.273Z,15.40
2023-02-24T14:51:36.402Z,16.30
2023-02-24T14:54:07.376Z,11.70
2023-02-24T14:56:36.876Z,17.30
2023-02-24T14:59:08.426Z,20.60
2023-02-24T15:04:34.469Z,11.90
2023-02-24T15:07:05.171Z,16.20
2023-02-24T15:09:40.407Z,14.70
2023-02-24T15:12:12.903Z,15.60
2023-02-24T15:14:41.838Z,9.60
2023-02-24T15:17:11.933Z,19.80
2023-02-24T15:19:45.989Z,12.90
2023-02-24T15:22:28.381Z,13.60
2023-02-24T15:25:37.141Z,11.00
2023-02-24T15:28:22.117Z,15.70
2023-02-24T15:31:02.002Z,13.20
2023-02-24T15:33:40.070Z,14.20
2023-02-24T15:36:12.997Z,10.40
2023-02-24T15:38:42.823Z,18.00
2023-02-24T15:41:11.495Z,14.80
2023-02-24T15:43:50.339Z,13.90
2023-02-24T15:46:19.189Z,16.30
2023-02-24T15:48:48.782Z,13.30
2023-02-24T15:51:23.649Z,11.60
2023-02-24T15:53:52.227Z,16.10
2023-02-24T15:56:20.887Z,9.70
2023-02-24T15:58:49.352Z,14.40
2023-02-24T16:01:20.491Z,13.80
2023-02-24T16:03:49.745Z,16.20
2023-02-24T16:06:19.585Z,15.20
2023-02-24T16:08:49.377Z,16.30
2023-02-24T16:11:19.687Z,19.30
2023-02-24T16:13:59.995Z,17.00
2023-02-24T16:16:28.328Z,11.70
2023-02-24T16:18:57.157Z,14.20
2023-02-24T16:21:25.587Z,14.60
2023-02-24T16:23:53.828Z,16.40
2023-02-24T16:26:23.480Z,17.80
2023-02-24T16:28:56.699Z,18.40
2023-02-24T16:31:27.086Z,10.50
2023-02-24T16:33:56.286Z,11.90
2023-02-24T16:36:25.198Z,15.90
2023-02-24T16:38:53.815Z,15.00
2023-02-24T16:41:22.065Z,15.00
2023-02-24T16:43:50.900Z,14.50
2023-02-24T16:46:21.303Z,15.20
2023-02-24T16:48:50.932Z,18.80
2023-02-24T16:51:19.397Z,13.30
2023-02-24T16:53:49.261Z,18.50
2023-02-24T16:56:18.188Z,18.70
2023-02-24T16:58:46.964Z,15.30
2023-02-24T17:01:19.136Z,17.90
2023-02-24T17:03:49.444Z,23.40
2023-02-24T17:06:20.832Z,24.60
2023-02-24T17:08:50.844Z,13.00
2023-02-24T17:11:20.424Z,14.80
2023-02-24T17:13:49.959Z,13.20
2023-02-24T17:16:19.245Z,17.00
2023-02-24T17:18:48.600Z,13.00
2023-02-24T17:21:18.164Z,18.00
2023-02-24T17:23:46.525Z,12.60
2023-02-24T17:26:15.021Z,14.00
2023-02-24T17:28:43.426Z,20.40
2023-02-24T17:31:12.735Z,14.50
2023-02-24T17:33:41.658Z,17.70
2023-02-24T17:36:10.202Z,17.60
2023-02-24T17:38:38.350Z,22.80
2023-02-24T17:41:06.536Z,12.10
2023-02-24T17:43:35.291Z,15.40
2023-02-24T17:46:07.366Z,17.10
2023-02-24T17:48:36.674Z,13.90
2023-02-24T17:51:16.050Z,15.50
2023-02-24T17:53:44.811Z,19.00
2023-02-24T17:56:13.074Z,19.40
2023-02-24T17:58:41.667Z,14.00
2023-02-24T18:01:09.860Z,16.40
2023-02-24T18:03:38.628Z,16.40
2023-02-24T18:06:11.289Z,16.00
2023-02-24T18:08:43.237Z,13.40
2023-02-24T18:11:15.608Z,17.30
2023-02-24T18:13:50.981Z,15.00
2023-02-24T18:16:19.927Z,17.10
2023-02-24T18:18:48.557Z,17.50
2023-02-24T18:21:16.777Z,16.40
2023-02-24T18:23:45.896Z,27.90
2023-02-24T18:26:14.015Z,12.50
2023-02-24T18:28:42.847Z,14.00
2023-02-24T18:31:15.855Z,16.40
2023-02-24T18:33:44.499Z,13.50
2023-02-24T18:36:12.832Z,13.70
2023-02-24T18:38:41.080Z,12.20
2023-02-24T18:41:11.855Z,14.00
2023-02-24T18:43:40.390Z,13.90
2023-02-24T18:46:12.246Z,22.00
2023-02-24T18:48:41.378Z,21.70
2023-02-24T18:51:09.946Z,17.40
2023-02-24T18:53:38.928Z,14.80
2023-02-24T18:56:09.868Z,14.70
2023-02-24T18:58:38.736Z,17.50
2023-02-24T19:01:14.169Z,17.30
2023-02-24T19:03:42.837Z,14.30
2023-02-24T19:06:11.647Z,18.40
2023-02-24T19:08:40.539Z,16.90
2023-02-24T19:11:10.299Z,14.40
2023-02-24T19:13:38.508Z,18.70
2023-02-24T19:16:07.472Z,28.30
2023-02-24T19:18:36.544Z,18.70
2023-02-24T19:21:06.537Z,14.30
2023-02-24T19:26:05.398Z,19.80
2023-02-24T19:28:33.648Z,25.50
2023-02-24T19:31:02.123Z,13.70
2023-02-24T19:33:30.412Z,20.30
2023-02-24T19:35:59.771Z,16.30
2023-02-24T19:38:28.587Z,15.50
2023-02-24T19:40:59.660Z,20.60
2023-02-24T19:43:28.385Z,20.50
2023-02-24T19:45:56.644Z,17.40
2023-02-24T19:48:25.214Z,17.70
2023-02-24T19:50:53.539Z,15.10
2023-02-24T19:53:22.079Z,20.90
2023-02-24T19:55:50.717Z,21.70
2023-02-24T19:58:18.888Z,15.10
2023-02-24T20:00:48.365Z,13.80
2023-02-24T20:05:46.927Z,16.00
2023-02-24T20:08:15.739Z,15.60
2023-02-24T20:10:44.186Z,18.00
2023-02-24T20:13:16.686Z,15.90
2023-02-24T20:15:44.901Z,16.60
2023-02-24T20:18:13.179Z,18.90
2023-02-24T20:20:44.743Z,15.80
2023-02-24T20:23:13.596Z,18.00
2023-02-24T20:25:53.313Z,17.30
2023-02-24T20:28:22.154Z,16.30
2023-02-24T20:30:54.968Z,18.30
2023-02-24T20:33:23.261Z,20.70
2023-02-24T20:35:51.672Z,20.50
2023-02-24T20:38:20.376Z,19.30
2023-02-24T20:41:00.257Z,19.70
2023-02-24T20:43:28.766Z,16.50
2023-02-24T20:45:57.029Z,16.40
2023-02-24T20:48:25.370Z,16.10
2023-02-24T20:50:53.612Z,16.50
2023-02-24T20:53:23.282Z,13.40
2023-02-24T20:55:51.732Z,17.60
2023-02-24T20:58:20.417Z,20.20
2023-02-24T21:00:48.623Z,15.90
2023-02-24T21:03:17.877Z,20.20
2023-02-24T21:05:46.552Z,19.40
2023-02-24T21:08:14.932Z,20.70
2023-02-24T21:10:46.241Z,16.00
2023-02-24T21:13:16.319Z,18.90
2023-02-24T21:15:54.109Z,13.90
2023-02-24T21:18:23.170Z,14.80
2023-02-24T21:20:54.615Z,20.20
2023-02-24T21:23:22.990Z,16.80
2023-02-24T21:25:54.206Z,17.80
2023-02-24T21:28:22.646Z,14.60
2023-02-24T21:30:51.106Z,14.30
2023-02-24T21:33:19.515Z,16.90
2023-02-24T21:36:09.769Z,26.10
2023-02-24T21:38:38.616Z,20.70
2023-02-24T21:41:07.889Z,19.40
2023-02-24T21:43:37.939Z,17.90
2023-02-24T21:46:09.283Z,23.90
2023-02-24T21:48:38.883Z,19.20
2023-02-24T21:51:09.607Z,17.30
2023-02-24T21:53:39.611Z,20.80
2023-02-24T21:56:16.477Z,22.30
2023-02-24T21:58:46.643Z,23.20
2023-02-24T22:01:26.890Z,20.30
2023-02-24T22:03:59.548Z,18.70
2023-02-24T22:06:31.782Z,18.70
2023-02-24T22:09:02.127Z,19.80
2023-02-24T22:11:35.350Z,18.20
2023-02-24T22:16:34.850Z,18.70
2023-02-24T22:19:03.082Z,20.70
2023-02-24T22:21:32.421Z,18.60
2023-02-24T22:24:01.995Z,18.30
2023-02-24T22:26:30.608Z,20.60
2023-02-24T22:28:59.107Z,19.70
2023-02-24T22:31:31.520Z,24.30
2023-02-24T22:34:00.111Z,19.90
2023-02-24T22:36:31.023Z,21.50
2023-02-24T22:39:00.342Z,19.40
2023-02-24T22:41:33.102Z,18.90
2023-02-24T22:44:04.386Z,21.20
2023-02-24T22:46:34.848Z,17.50
2023-02-24T22:49:03.200Z,19.00
2023-02-24T22:51:31.547Z,17.90
2023-02-24T22:53:59.685Z,24.20
2023-02-24T22:56:29.172Z,20.90
2023-02-24T22:58:57.853Z,17.40
2023-02-24T23:01:36.168Z,19.90
2023-02-24T23:04:06.246Z,18.00
2023-02-24T23:06:35.024Z,17.00
2023-02-24T23:09:03.916Z,21.50
2023-02-24T23:11:41.336Z,14.40
2023-02-24T23:14:13.913Z,18.00
2023-02-24T23:16:44.620Z,22.00
2023-02-24T23:19:16.819Z,18.20
2023-02-24T23:21:50.365Z,25.30
2023-02-24T23:24:22.082Z,18.10
2023-02-24T23:26:54.142Z,17.00
2023-02-24T23:29:24.349Z,23.80
2023-02-24T23:31:52.833Z,18.40
2023-02-24T23:34:21.180Z,22.40
2023-02-24T23:36:49.468Z,18.80
2023-02-24T23:39:23.191Z,21.90
2023-02-24T23:41:56.854Z,23.20
2023-02-24T23:44:25.633Z,20.40
2023-02-24T23:46:54.202Z,18.40
2023-02-24T23:49:24.177Z,18.40
2023-02-24T23:51:53.104Z,21.60
2023-02-24T23:54:21.433Z,20.00
2023-02-24T23:56:49.839Z,17.70
2023-02-24T23:59:21.657Z,18.20
